DLH472 SBEG-SUMU
Flight info
| Callsign | DLH472 |
|---|---|
| Flight time | N/A |
| Altitude | 38000 |
| Route | DCT DEMIT UM402 UBKAB/N0468F390 UM402 SIDAK/N0468F380 UM402 VUDUP DCT ANRUP DCT EGLEN DCT |
| Aircraft | A346/H-SDE2E3FGHIJ3J4J5M1RWXY/LB1D1 |
Departure
| Time | N/A |
|---|---|
| Airport | Eduardo Gomes International Airport (SBEG) |
Arrival
| Time | 2026-04-26 00:11 |
|---|---|
| Airport | Carrasco General Cesáreo L. Berisso International Airport (SUMU) |
| Time | Latitude | Longitude | Altitude | Speed | Heading |
|---|---|---|---|---|---|
| 2026-04-25 23:24 | -29.59509 | -57.08686 | 37937 ft | 511 kts | 167° |
| 2026-04-25 23:24 | -29.65842 | -57.05073 | 37932 ft | 510 kts | 167° |
| 2026-04-25 23:25 | -29.72227 | -57.01532 | 37971 ft | 510 kts | 168° |
| 2026-04-25 23:25 | -29.78629 | -56.97959 | 37948 ft | 512 kts | 168° |
| 2026-04-25 23:26 | -29.85034 | -56.94375 | 37954 ft | 512 kts | 168° |
| 2026-04-25 23:26 | -29.91399 | -56.90815 | 38002 ft | 512 kts | 168° |
| 2026-04-25 23:27 | -29.96656 | -56.87870 | 37966 ft | 513 kts | 168° |
| 2026-04-25 23:27 | -30.03075 | -56.84287 | 37961 ft | 511 kts | 169° |
| 2026-04-25 23:28 | -30.09572 | -56.81271 | 37965 ft | 496 kts | 176° |
| 2026-04-25 23:28 | -30.16133 | -56.79212 | 37990 ft | 481 kts | 184° |
| 2026-04-25 23:29 | -30.22619 | -56.77996 | 37952 ft | 474 kts | 187° |
| 2026-04-25 23:29 | -30.29133 | -56.76986 | 37963 ft | 472 kts | 188° |
| 2026-04-25 23:30 | -30.35641 | -56.76001 | 38002 ft | 472 kts | 188° |
| 2026-04-25 23:30 | -30.42186 | -56.74998 | 38098 ft | 478 kts | 188° |
| 2026-04-25 23:30 | -30.45485 | -56.74486 | 38403 ft | 478 kts | 188° |
| 2026-04-25 23:31 | -30.48724 | -56.73978 | 38740 ft | 476 kts | 188° |
| 2026-04-25 23:31 | -30.52001 | -56.73464 | 38955 ft | 475 kts | 188° |
| 2026-04-25 23:31 | -30.55273 | -56.72954 | 38962 ft | 474 kts | 188° |
| 2026-04-25 23:32 | -30.61816 | -56.71930 | 39000 ft | 475 kts | 189° |
| 2026-04-25 23:32 | -30.68373 | -56.70910 | 38976 ft | 475 kts | 189° |
| 2026-04-25 23:33 | -30.74929 | -56.69882 | 38969 ft | 476 kts | 188° |
| 2026-04-25 23:33 | -30.81448 | -56.68852 | 39001 ft | 476 kts | 189° |
| 2026-04-25 23:34 | -30.88020 | -56.67815 | 38976 ft | 477 kts | 189° |
| 2026-04-25 23:34 | -30.94598 | -56.66771 | 38975 ft | 477 kts | 188° |
| 2026-04-25 23:35 | -31.01173 | -56.65726 | 38977 ft | 477 kts | 188° |
| 2026-04-25 23:35 | -31.07719 | -56.64688 | 38999 ft | 479 kts | 188° |
| 2026-04-25 23:36 | -31.14321 | -56.63642 | 38982 ft | 479 kts | 188° |
| 2026-04-25 23:36 | -31.20930 | -56.62590 | 38978 ft | 479 kts | 188° |
| 2026-04-25 23:37 | -31.27539 | -56.61538 | 38996 ft | 480 kts | 188° |
| 2026-04-25 23:37 | -31.34115 | -56.60490 | 38985 ft | 480 kts | 188° |
| 2026-04-25 23:38 | -31.40737 | -56.59432 | 38981 ft | 480 kts | 188° |
| 2026-04-25 23:38 | -31.47358 | -56.58374 | 38999 ft | 480 kts | 188° |
| 2026-04-25 23:39 | -31.54008 | -56.57314 | 38977 ft | 482 kts | 188° |
| 2026-04-25 23:39 | -31.60607 | -56.56249 | 38975 ft | 482 kts | 188° |
| 2026-04-25 23:40 | -31.67243 | -56.55185 | 38974 ft | 482 kts | 188° |
| 2026-04-25 23:40 | -31.73885 | -56.54118 | 38973 ft | 482 kts | 188° |
| 2026-04-25 23:41 | -31.80545 | -56.53042 | 38973 ft | 482 kts | 188° |
| 2026-04-25 23:41 | -31.87143 | -56.51975 | 38974 ft | 482 kts | 188° |
| 2026-04-25 23:42 | -31.93784 | -56.50906 | 39001 ft | 482 kts | 188° |
| 2026-04-25 23:42 | -32.00442 | -56.49831 | 38982 ft | 483 kts | 188° |
| 2026-04-25 23:43 | -32.07103 | -56.48750 | 38972 ft | 483 kts | 188° |
| 2026-04-25 23:43 | -32.13722 | -56.47678 | 39018 ft | 483 kts | 187° |
| 2026-04-25 23:44 | -32.20401 | -56.46596 | 38974 ft | 485 kts | 187° |
| 2026-04-25 23:44 | -32.27084 | -56.45500 | 38968 ft | 485 kts | 187° |
| 2026-04-25 23:45 | -32.33770 | -56.44405 | 38965 ft | 485 kts | 187° |
| 2026-04-25 23:45 | -32.40412 | -56.43324 | 38975 ft | 485 kts | 186° |
| 2026-04-25 23:46 | -32.47100 | -56.42226 | 38968 ft | 485 kts | 186° |
| 2026-04-25 23:46 | -32.53786 | -56.41126 | 38961 ft | 485 kts | 186° |
| 2026-04-25 23:47 | -32.60474 | -56.40032 | 38984 ft | 485 kts | 186° |
| 2026-04-25 23:47 | -32.67160 | -56.38932 | 38963 ft | 485 kts | 186° |
| 2026-04-25 23:48 | -32.73797 | -56.37838 | 38959 ft | 485 kts | 186° |
| 2026-04-25 23:48 | -32.80483 | -56.36739 | 38971 ft | 485 kts | 186° |
| 2026-04-25 23:49 | -32.87165 | -56.35637 | 38960 ft | 485 kts | 186° |
| 2026-04-25 23:49 | -32.93850 | -56.34532 | 38956 ft | 485 kts | 186° |
| 2026-04-25 23:50 | -33.00488 | -56.33433 | 38994 ft | 485 kts | 185° |
| 2026-04-25 23:50 | -33.07179 | -56.32325 | 38725 ft | 487 kts | 185° |
| 2026-04-25 23:50 | -33.10539 | -56.31766 | 38166 ft | 488 kts | 185° |
| 2026-04-25 23:51 | -33.13899 | -56.31206 | 37546 ft | 488 kts | 185° |
| 2026-04-25 23:51 | -33.17263 | -56.30646 | 36925 ft | 488 kts | 185° |
| 2026-04-25 23:51 | -33.20628 | -56.30084 | 36323 ft | 489 kts | 185° |
| 2026-04-25 23:51 | -33.23998 | -56.29527 | 35648 ft | 490 kts | 185° |
| 2026-04-25 23:52 | -33.27383 | -56.28966 | 34980 ft | 492 kts | 185° |
| 2026-04-25 23:52 | -33.30736 | -56.28409 | 34320 ft | 494 kts | 185° |
| 2026-04-25 23:52 | -33.34152 | -56.27839 | 33611 ft | 496 kts | 185° |
| 2026-04-25 23:52 | -33.37572 | -56.27268 | 32888 ft | 497 kts | 184° |
| 2026-04-25 23:53 | -33.40992 | -56.26695 | 32229 ft | 496 kts | 184° |
| 2026-04-25 23:53 | -33.44413 | -56.26125 | 31588 ft | 496 kts | 184° |
| 2026-04-25 23:53 | -33.47833 | -56.25553 | 30908 ft | 496 kts | 184° |
| 2026-04-25 23:53 | -33.51254 | -56.24979 | 30232 ft | 497 kts | 184° |
| 2026-04-25 23:54 | -33.54680 | -56.24404 | 29465 ft | 497 kts | 183° |
| 2026-04-25 23:54 | -33.58039 | -56.23840 | 28635 ft | 488 kts | 183° |
| 2026-04-25 23:54 | -33.61346 | -56.23274 | 28070 ft | 474 kts | 183° |
| 2026-04-25 23:54 | -33.64588 | -56.22726 | 27709 ft | 467 kts | 183° |
| 2026-04-25 23:55 | -33.67789 | -56.22191 | 27284 ft | 461 kts | 183° |
| 2026-04-25 23:55 | -33.70944 | -56.21664 | 26883 ft | 455 kts | 183° |
| 2026-04-25 23:55 | -33.74059 | -56.21141 | 26480 ft | 449 kts | 183° |
| 2026-04-25 23:55 | -33.77128 | -56.20709 | 26101 ft | 439 kts | 186° |
| 2026-04-25 23:56 | -33.80141 | -56.20481 | 25724 ft | 428 kts | 189° |
| 2026-04-25 23:56 | -33.83045 | -56.20458 | 25365 ft | 418 kts | 192° |
| 2026-04-25 23:56 | -33.85914 | -56.20597 | 24828 ft | 407 kts | 193° |
| 2026-04-25 23:56 | -33.88695 | -56.20776 | 24246 ft | 395 kts | 194° |
| 2026-04-25 23:57 | -33.91425 | -56.20967 | 23583 ft | 394 kts | 193° |
| 2026-04-25 23:57 | -33.94185 | -56.21166 | 23179 ft | 398 kts | 193° |
| 2026-04-25 23:57 | -33.96942 | -56.21354 | 22740 ft | 395 kts | 192° |
| 2026-04-25 23:57 | -33.99680 | -56.21534 | 22365 ft | 393 kts | 192° |
| 2026-04-25 23:58 | -34.02398 | -56.21711 | 21989 ft | 390 kts | 192° |
| 2026-04-25 23:58 | -34.05097 | -56.21885 | 21618 ft | 387 kts | 192° |
| 2026-04-25 23:58 | -34.07737 | -56.22058 | 21320 ft | 384 kts | 191° |
| 2026-04-25 23:58 | -34.10399 | -56.22240 | 20902 ft | 382 kts | 191° |
| 2026-04-25 23:59 | -34.13040 | -56.22440 | 20506 ft | 379 kts | 191° |
| 2026-04-25 23:59 | -34.15656 | -56.22655 | 20044 ft | 376 kts | 192° |
| 2026-04-25 23:59 | -34.18257 | -56.22886 | 19590 ft | 373 kts | 192° |
| 2026-04-25 23:59 | -34.20833 | -56.23134 | 19156 ft | 371 kts | 192° |
| 2026-04-26 00:00 | -34.23395 | -56.23398 | 18721 ft | 368 kts | 192° |
| 2026-04-26 00:00 | -34.25936 | -56.23679 | 18286 ft | 365 kts | 192° |
| 2026-04-26 00:00 | -34.28459 | -56.23977 | 17826 ft | 363 kts | 192° |
| 2026-04-26 00:00 | -34.30932 | -56.24288 | 17319 ft | 362 kts | 191° |
| 2026-04-26 00:01 | -34.33465 | -56.24274 | 16680 ft | 370 kts | 173° |
| 2026-04-26 00:01 | -34.35846 | -56.23054 | 15730 ft | 378 kts | 147° |
| 2026-04-26 00:01 | -34.37813 | -56.20985 | 15086 ft | 371 kts | 139° |
| 2026-04-26 00:01 | -34.39639 | -56.18820 | 14348 ft | 364 kts | 138° |
| 2026-04-26 00:02 | -34.41460 | -56.16713 | 13603 ft | 358 kts | 139° |
| 2026-04-26 00:02 | -34.43283 | -56.14691 | 12802 ft | 352 kts | 140° |
| 2026-04-26 00:02 | -34.45070 | -56.12771 | 12198 ft | 342 kts | 141° |
| 2026-04-26 00:02 | -34.46835 | -56.10905 | 11596 ft | 333 kts | 142° |
| 2026-04-26 00:03 | -34.48563 | -56.09097 | 11126 ft | 320 kts | 142° |
| 2026-04-26 00:03 | -34.50215 | -56.07380 | 10699 ft | 307 kts | 142° |
| 2026-04-26 00:03 | -34.51830 | -56.05709 | 10069 ft | 304 kts | 142° |
| 2026-04-26 00:03 | -34.53431 | -56.04055 | 9382 ft | 301 kts | 141° |
| 2026-04-26 00:04 | -34.55013 | -56.02418 | 8721 ft | 297 kts | 141° |
| 2026-04-26 00:04 | -34.56575 | -56.00797 | 8086 ft | 290 kts | 141° |
| 2026-04-26 00:04 | -34.58092 | -55.99222 | 7279 ft | 284 kts | 141° |
| 2026-04-26 00:04 | -34.59588 | -55.97670 | 6431 ft | 280 kts | 141° |
| 2026-04-26 00:05 | -34.61054 | -55.96148 | 5631 ft | 274 kts | 141° |
| 2026-04-26 00:05 | -34.62479 | -55.94668 | 5005 ft | 271 kts | 141° |
| 2026-04-26 00:05 | -34.63898 | -55.93193 | 4179 ft | 268 kts | 140° |
| 2026-04-26 00:05 | -34.65309 | -55.91799 | 3662 ft | 253 kts | 144° |
| 2026-04-26 00:06 | -34.66675 | -55.90560 | 3301 ft | 236 kts | 144° |
| 2026-04-26 00:06 | -34.67944 | -55.89420 | 3034 ft | 217 kts | 144° |
| 2026-04-26 00:06 | -34.69097 | -55.88387 | 2956 ft | 197 kts | 144° |
| 2026-04-26 00:06 | -34.70191 | -55.87407 | 2960 ft | 194 kts | 145° |
| 2026-04-26 00:07 | -34.71268 | -55.86452 | 2949 ft | 187 kts | 150° |
| 2026-04-26 00:07 | -34.72475 | -55.86065 | 2955 ft | 180 kts | 190° |
| 2026-04-26 00:07 | -34.73544 | -55.86635 | 2986 ft | 168 kts | 219° |
| 2026-04-26 00:07 | -34.74377 | -55.87602 | 2835 ft | 164 kts | 230° |
| 2026-04-26 00:08 | -34.75103 | -55.88673 | 2617 ft | 163 kts | 233° |
| 2026-04-26 00:08 | -34.75788 | -55.89773 | 2399 ft | 161 kts | 234° |
| 2026-04-26 00:08 | -34.76441 | -55.90852 | 2175 ft | 157 kts | 234° |
| 2026-04-26 00:08 | -34.77083 | -55.91922 | 1974 ft | 156 kts | 234° |
| 2026-04-26 00:09 | -34.77723 | -55.92987 | 1775 ft | 156 kts | 234° |
| 2026-04-26 00:09 | -34.78365 | -55.94051 | 1577 ft | 156 kts | 233° |
| 2026-04-26 00:09 | -34.79010 | -55.95118 | 1364 ft | 156 kts | 233° |
| 2026-04-26 00:09 | -34.79647 | -55.96171 | 1154 ft | 156 kts | 233° |
| 2026-04-26 00:10 | -34.80291 | -55.97235 | 948 ft | 156 kts | 233° |
| 2026-04-26 00:10 | -34.80931 | -55.98298 | 739 ft | 156 kts | 233° |
| 2026-04-26 00:10 | -34.81577 | -55.99373 | 516 ft | 155 kts | 233° |
| 2026-04-26 00:10 | -34.82220 | -56.00420 | 325 ft | 154 kts | 233° |
| 2026-04-26 00:11 | -34.82856 | -56.01465 | 134 ft | 152 kts | 233° |
| 2026-04-26 00:11 | -34.83396 | -56.02351 | 114 ft | 100 kts | 233° |
| 2026-04-26 00:11 | -34.83664 | -56.02795 | 111 ft | 27 kts | 229° |
| 2026-04-26 00:11 | -34.83752 | -56.02850 | 111 ft | 18 kts | 185° |
| 2026-04-26 00:12 | -34.83792 | -56.02853 | 109 ft | 3 kts | 181° |
| 2026-04-26 00:12 | -34.83834 | -56.02851 | 107 ft | 9 kts | 174° |
| 2026-04-26 00:12 | -34.83889 | -56.02837 | 104 ft | 9 kts | 159° |
| 2026-04-26 00:12 | -34.83931 | -56.02813 | 103 ft | 3 kts | 147° |
| 2026-04-26 00:13 | -34.83947 | -56.02792 | 102 ft | 1 kts | 132° |
| 2026-04-26 00:13 | -34.83966 | -56.02751 | 102 ft | 9 kts | 103° |
| 2026-04-26 00:13 | -34.83954 | -56.02658 | 101 ft | 13 kts | 76° |
| 2026-04-26 00:13 | -34.83947 | -56.02534 | 96 ft | 15 kts | 89° |
| 2026-04-26 00:14 | -34.83946 | -56.02385 | 91 ft | 21 kts | 90° |
| 2026-04-26 00:14 | -34.83929 | -56.02267 | 92 ft | 10 kts | 26° |
| 2026-04-26 00:14 | -34.83874 | -56.02247 | 95 ft | 7 kts | 9° |
| 2026-04-26 00:14 | -34.83804 | -56.02228 | 100 ft | 12 kts | 22° |
| 2026-04-26 00:15 | -34.83731 | -56.02152 | 104 ft | 20 kts | 50° |
| 2026-04-26 00:15 | -34.83652 | -56.02026 | 103 ft | 16 kts | 53° |
| 2026-04-26 00:15 | -34.83619 | -56.01970 | 104 ft | 7 kts | 58° |
| 2026-04-26 00:15 | -34.83626 | -56.01939 | 105 ft | 0 kts | 121° |
| 2026-04-26 00:16 | -34.83624 | -56.01944 | 106 ft | 3 kts | 111° |
| 2026-04-26 00:16 | -34.83615 | -56.01939 | 104 ft | 16 kts | 52° |
| 2026-04-26 00:16 | -34.83541 | -56.01832 | 105 ft | 11 kts | 60° |
| 2026-04-26 00:16 | -34.83545 | -56.01777 | 103 ft | 6 kts | 115° |
| 2026-04-26 00:17 | -34.83560 | -56.01748 | 102 ft | 0 kts | 132° |
| 2026-04-26 00:17 | -34.83564 | -56.01743 | 104 ft | 0 kts | 138° |